Time;durP1;ratioP1;P1;durP2;ratioP2;P2;SDS_P1;SDS_P2;PMS_P1;PMS_P2;Temp;Humidity;BMP_temperature;BMP_pressure;BME280_temperature;BME280_humidity;BME280_pressure;Samples;Min_cycle;Max_cycle;Signal;HPM_P1;HPM_P2
2021/08/22 00:02:12;;;;;;;21.20;13.73;;;25.50;51.10;;;;;;6101192;28;84109;-63
2021/08/22 00:05:12;;;;;;;22.70;13.52;;;25.40;51.70;;;;;;6086798;28;84288;-63
2021/08/22 00:08:13;;;;;;;20.35;13.40;;;25.40;51.00;;;;;;6104929;28;83764;-64
2021/08/22 00:11:13;;;;;;;21.15;13.55;;;25.40;51.10;;;;;;6104100;28;84140;-64
2021/08/22 00:14:13;;;;;;;21.98;12.80;;;25.40;51.00;;;;;;6086378;28;84134;-64
2021/08/22 00:17:14;;;;;;;20.13;12.70;;;25.40;51.10;;;;;;6101156;28;84666;-64
2021/08/22 00:20:15;;;;;;;21.80;13.27;;;25.40;50.90;;;;;;6104852;28;82757;-64
2021/08/22 00:23:16;;;;;;;22.30;13.35;;;25.40;50.90;;;;;;6077592;28;84075;-63
2021/08/22 00:26:16;;;;;;;19.10;13.45;;;25.40;50.80;;;;;;6101159;28;83571;-63
2021/08/22 00:29:17;;;;;;;19.65;12.73;;;25.30;50.90;;;;;;6099207;28;83456;-63
2021/08/22 00:32:17;;;;;;;21.92;14.40;;;25.40;51.00;;;;;;6104349;28;85471;-63
2021/08/22 00:35:18;;;;;;;19.85;13.45;;;25.40;50.90;;;;;;6100105;28;83792;-64
2021/08/22 00:38:18;;;;;;;20.48;12.25;;;25.40;50.80;;;;;;6091958;28;83193;-64
2021/08/22 00:41:19;;;;;;;19.60;12.88;;;25.30;51.00;;;;;;6103599;28;83259;-64
2021/08/22 00:44:19;;;;;;;20.30;12.32;;;25.30;50.90;;;;;;6103580;28;84027;-63
2021/08/22 00:47:20;;;;;;;21.42;12.88;;;25.30;51.10;;;;;;6086712;28;84470;-63
2021/08/22 00:50:20;;;;;;;20.45;13.43;;;25.40;50.90;;;;;;6096710;28;82778;-63
2021/08/22 00:53:21;;;;;;;19.42;12.65;;;25.30;50.90;;;;;;6098681;28;83689;-63
2021/08/22 00:56:21;;;;;;;18.55;12.48;;;25.30;51.30;;;;;;6105165;28;83670;-63
2021/08/22 00:59:22;;;;;;;16.90;12.10;;;25.30;50.90;;;;;;6081007;28;83229;-63
2021/08/22 01:02:22;;;;;;;21.30;12.18;;;25.30;50.90;;;;;;6081188;28;84559;-63
2021/08/22 01:05:23;;;;;;;21.30;12.68;;;25.30;50.90;;;;;;6080221;28;83675;-63
2021/08/22 01:08:23;;;;;;;18.92;12.93;;;25.30;50.90;;;;;;6079263;28;83249;-64
2021/08/22 01:11:24;;;;;;;18.92;12.30;;;25.30;50.80;;;;;;6081737;28;83424;-64
2021/08/22 01:14:24;;;;;;;18.92;12.35;;;25.30;51.10;;;;;;6080776;28;83491;-65
2021/08/22 01:17:25;;;;;;;17.75;12.60;;;25.30;51.00;;;;;;6081348;28;83702;-64
2021/08/22 01:20:25;;;;;;;18.38;11.55;;;25.30;50.80;;;;;;6103929;28;83017;-64
2021/08/22 01:23:28;;;;;;;17.98;12.65;;;25.30;50.90;;;;;;6103860;28;83130;-64
2021/08/22 01:26:28;;;;;;;16.88;11.43;;;25.30;50.90;;;;;;6093943;28;83395;-63
2021/08/22 01:29:29;;;;;;;19.08;11.75;;;25.30;50.90;;;;;;6107140;28;83896;-63
2021/08/22 01:32:29;;;;;;;18.92;11.70;;;25.30;51.10;;;;;;6108997;28;82804;-63
2021/08/22 01:35:31;;;;;;;19.30;13.05;;;25.20;50.80;;;;;;6105771;28;84526;-63
2021/08/22 01:38:32;;;;;;;17.75;11.95;;;25.30;51.00;;;;;;6106752;28;83062;-63
2021/08/22 01:41:32;;;;;;;18.27;11.45;;;25.20;50.70;;;;;;6108957;28;84013;-64
2021/08/22 01:44:32;;;;;;;18.58;13.02;;;25.20;50.80;;;;;;6108807;28;83191;-63
2021/08/22 01:47:33;;;;;;;17.40;11.25;;;25.20;50.80;;;;;;6103433;28;83115;-63
2021/08/22 01:50:33;;;;;;;18.85;12.02;;;25.20;50.70;;;;;;6086091;28;83244;-64
2021/08/22 01:53:34;;;;;;;22.52;12.68;;;25.20;50.80;;;;;;6108191;28;83464;-63
2021/08/22 01:56:35;;;;;;;17.42;11.48;;;25.20;50.70;;;;;;6092915;28;83433;-63
2021/08/22 01:59:35;;;;;;;19.85;12.68;;;25.20;50.70;;;;;;6107002;28;83649;-63
2021/08/22 02:02:35;;;;;;;16.35;11.50;;;25.20;50.70;;;;;;6107692;28;83548;-64
2021/08/22 02:05:36;;;;;;;19.10;12.05;;;25.20;50.70;;;;;;6109119;28;83223;-64
2021/08/22 02:08:37;;;;;;;19.10;11.75;;;25.20;50.70;;;;;;6106622;28;84120;-64
2021/08/22 02:11:37;;;;;;;17.38;11.77;;;25.20;50.70;;;;;;6106638;28;83197;-63
2021/08/22 02:14:38;;;;;;;16.73;11.63;;;25.10;50.60;;;;;;6106372;28;89068;-64
2021/08/22 02:17:38;;;;;;;15.45;10.88;;;25.10;50.60;;;;;;6108850;28;83974;-64
2021/08/22 02:20:38;;;;;;;18.15;12.10;;;25.10;50.50;;;;;;6106676;28;83961;-64
2021/08/22 02:23:39;;;;;;;17.88;11.75;;;25.10;50.50;;;;;;6105095;28;83268;-64
2021/08/22 02:26:39;;;;;;;17.90;11.75;;;25.10;50.50;;;;;;6108012;28;84328;-64
2021/08/22 02:29:40;;;;;;;19.48;12.45;;;25.20;50.60;;;;;;6108070;28;83642;-64
2021/08/22 02:32:40;;;;;;;15.82;12.23;;;25.10;50.60;;;;;;6098008;28;84146;-64
2021/08/22 02:35:41;;;;;;;15.15;10.95;;;25.10;50.60;;;;;;6107780;28;84161;-64
2021/08/22 02:38:41;;;;;;;18.00;12.57;;;25.10;50.70;;;;;;6087796;28;85813;-64
2021/08/22 02:41:42;;;;;;;16.02;11.68;;;25.10;50.60;;;;;;6097080;28;83935;-64
2021/08/22 02:44:42;;;;;;;18.75;12.20;;;25.10;50.70;;;;;;6107292;28;83448;-64
2021/08/22 02:47:43;;;;;;;18.90;11.77;;;25.10;50.50;;;;;;6107411;28;83524;-64
2021/08/22 02:50:43;;;;;;;17.23;11.27;;;25.10;50.50;;;;;;6086986;28;85406;-64
2021/08/22 02:53:44;;;;;;;18.05;11.70;;;25.10;50.50;;;;;;6082445;28;83581;-63
2021/08/22 02:56:44;;;;;;;18.15;11.25;;;25.10;50.40;;;;;;6082904;28;83245;-64
2021/08/22 02:59:45;;;;;;;16.00;11.05;;;25.10;51.00;;;;;;6084291;28;83468;-64
2021/08/22 03:02:45;;;;;;;18.10;11.73;;;25.10;50.40;;;;;;6080342;28;82916;-64
2021/08/22 03:05:45;;;;;;;19.13;11.57;;;25.10;50.30;;;;;;6083138;28;82997;-64
2021/08/22 03:08:46;;;;;;;16.23;11.60;;;25.10;50.40;;;;;;6082228;28;82934;-65
2021/08/22 03:11:46;;;;;;;15.60;10.65;;;25.10;50.30;;;;;;6082991;28;82985;-64
2021/08/22 03:14:47;;;;;;;18.98;11.55;;;25.00;50.30;;;;;;6082471;28;83639;-64
2021/08/22 03:17:48;;;;;;;17.88;11.90;;;25.00;50.20;;;;;;6082710;28;84357;-64
2021/08/22 03:20:48;;;;;;;17.35;10.80;;;25.10;50.40;;;;;;6082584;28;83596;-64
2021/08/22 03:23:48;;;;;;;16.10;11.90;;;25.00;50.30;;;;;;6110685;28;85369;-64
2021/08/22 03:26:49;;;;;;;17.45;11.40;;;25.10;50.40;;;;;;6105968;28;83139;-64
2021/08/22 03:29:49;;;;;;;18.75;12.52;;;25.00;50.40;;;;;;6096157;28;84268;-65
2021/08/22 03:32:50;;;;;;;16.83;11.55;;;25.00;50.40;;;;;;6080369;28;83105;-64
2021/08/22 03:35:50;;;;;;;17.20;10.80;;;25.00;50.40;;;;;;6083076;28;83180;-65
2021/08/22 03:38:51;;;;;;;15.80;11.23;;;25.00;50.40;;;;;;6081919;28;84003;-64
2021/08/22 03:41:51;;;;;;;17.40;11.05;;;25.00;50.40;;;;;;6080662;28;83200;-65
2021/08/22 03:44:52;;;;;;;19.02;10.93;;;25.00;50.40;;;;;;6078922;28;83816;-64
2021/08/22 03:47:52;;;;;;;18.23;11.20;;;25.00;50.40;;;;;;6081891;28;84040;-63
2021/08/22 03:50:53;;;;;;;16.27;10.98;;;25.00;50.30;;;;;;6105271;28;83764;-64
2021/08/22 03:53:54;;;;;;;15.60;11.43;;;25.00;50.40;;;;;;6107220;28;83520;-64
2021/08/22 03:56:54;;;;;;;17.95;11.57;;;25.00;50.20;;;;;;6107425;28;83330;-64
2021/08/22 03:59:55;;;;;;;15.52;10.73;;;25.00;50.20;;;;;;6106707;28;84410;-63
2021/08/22 04:02:55;;;;;;;17.80;11.30;;;25.00;50.10;;;;;;6075527;28;83013;-63
2021/08/22 04:06:11;;;;;;;14.85;10.68;;;25.00;50.10;;;;;;6103873;28;83749;-63
2021/08/22 04:09:12;;;;;;;20.00;10.70;;;25.00;50.10;;;;;;6098723;28;84435;-65
2021/08/22 04:12:13;;;;;;;15.10;10.32;;;25.00;50.30;;;;;;6104354;28;83019;-63
2021/08/22 04:15:13;;;;;;;15.05;10.35;;;25.10;50.30;;;;;;6087568;28;84211;-64
2021/08/22 04:18:14;;;;;;;17.25;10.75;;;25.10;50.40;;;;;;6097035;28;83443;-63
2021/08/22 04:21:14;;;;;;;16.45;10.43;;;25.00;50.30;;;;;;6106146;28;82877;-63
2021/08/22 04:24:15;;;;;;;19.75;10.82;;;25.00;50.40;;;;;;6101858;28;84047;-63
2021/08/22 04:27:15;;;;;;;14.77;10.32;;;25.00;50.50;;;;;;6107526;28;84283;-62
2021/08/22 04:30:16;;;;;;;17.38;10.80;;;25.00;50.50;;;;;;6088308;28;84470;-64
2021/08/22 04:33:16;;;;;;;15.15;10.05;;;25.00;50.50;;;;;;6107182;28;84030;-63
2021/08/22 04:36:17;;;;;;;15.20;11.18;;;25.00;50.50;;;;;;6103385;28;83775;-64
2021/08/22 04:39:17;;;;;;;15.75;10.30;;;25.00;50.60;;;;;;6103235;28;84139;-63
2021/08/22 04:42:18;;;;;;;16.30;10.25;;;25.00;50.80;;;;;;6102735;28;83653;-64
2021/08/22 04:45:18;;;;;;;14.63;9.77;;;25.00;50.90;;;;;;6104903;28;83566;-64
2021/08/22 04:48:19;;;;;;;15.30;9.88;;;25.00;50.80;;;;;;6107669;28;82856;-64
2021/08/22 04:51:19;;;;;;;18.38;10.45;;;25.10;51.00;;;;;;6109129;28;80247;-64
2021/08/22 04:54:23;;;;;;;15.30;10.27;;;25.10;51.00;;;;;;6105526;28;83415;-64
2021/08/22 04:57:24;;;;;;;13.18;9.55;;;25.10;51.50;;;;;;6106233;28;83462;-65
2021/08/22 05:00:25;;;;;;;14.82;10.65;;;25.10;51.30;;;;;;6112867;28;84603;-64
2021/08/22 05:03:25;;;;;;;17.38;10.27;;;25.10;51.50;;;;;;6109241;28;83089;-65
2021/08/22 05:06:26;;;;;;;17.17;10.82;;;25.10;51.30;;;;;;6108498;28;83904;-63
2021/08/22 05:09:26;;;;;;;13.88;9.52;;;25.10;51.50;;;;;;6105372;28;83974;-66
2021/08/22 05:12:27;;;;;;;12.07;9.27;;;25.10;51.80;;;;;;6111908;28;82900;-65
2021/08/22 05:15:27;;;;;;;13.70;9.30;;;25.10;51.50;;;;;;6114551;28;80375;-65
2021/08/22 05:18:28;;;;;;;17.70;10.35;;;25.10;51.90;;;;;;6113012;28;81472;-65
2021/08/22 05:21:28;;;;;;;15.10;9.82;;;25.20;51.60;;;;;;6110381;28;83180;-67
2021/08/22 05:24:29;;;;;;;14.38;9.82;;;25.20;51.80;;;;;;6112414;28;82300;-66
2021/08/22 05:27:29;;;;;;;13.85;9.13;;;25.20;51.60;;;;;;6113644;28;81730;-66
2021/08/22 05:30:30;;;;;;;17.48;10.30;;;25.20;51.70;;;;;;6115072;28;80970;-66
2021/08/22 05:33:30;;;;;;;16.05;10.15;;;25.20;52.00;;;;;;6111170;28;82966;-66
2021/08/22 05:36:31;;;;;;;16.15;9.98;;;25.20;52.50;;;;;;6110007;28;83256;-66
2021/08/22 05:39:31;;;;;;;14.73;9.55;;;25.20;52.60;;;;;;6090894;28;83536;-66
2021/08/22 05:42:32;;;;;;;13.57;9.57;;;25.20;52.40;;;;;;6114865;28;83386;-66
2021/08/22 05:45:32;;;;;;;12.88;9.07;;;25.20;52.80;;;;;;6114156;28;80526;-66
2021/08/22 05:48:33;;;;;;;15.20;9.90;;;25.30;52.90;;;;;;6111463;28;80719;-66
2021/08/22 05:51:33;;;;;;;17.55;9.23;;;25.30;53.10;;;;;;6109739;28;80582;-67
2021/08/22 05:54:34;;;;;;;17.63;10.27;;;25.20;53.30;;;;;;6094834;28;81700;-67
2021/08/22 05:57:34;;;;;;;15.35;10.43;;;25.20;53.50;;;;;;6109875;28;82997;-67
2021/08/22 06:00:37;;;;;;;15.35;9.93;;;25.30;53.50;;;;;;6108866;28;82951;-67
2021/08/22 06:03:37;;;;;;;14.90;10.35;;;25.20;53.60;;;;;;6095316;28;84378;-68
2021/08/22 06:06:38;;;;;;;15.40;9.43;;;25.30;53.80;;;;;;6110083;28;83733;-69
2021/08/22 06:09:38;;;;;;;17.05;10.48;;;25.30;53.80;;;;;;6092459;28;84121;-68
2021/08/22 06:12:39;;;;;;;16.58;9.82;;;25.30;53.80;;;;;;6105009;28;83368;-65
2021/08/22 06:15:39;;;;;;;20.90;10.82;;;25.30;53.90;;;;;;6111759;28;82812;-66
2021/08/22 06:18:40;;;;;;;15.93;10.20;;;25.30;53.90;;;;;;6108230;28;83932;-66
2021/08/22 06:21:40;;;;;;;19.17;11.02;;;25.30;54.40;;;;;;6113035;28;83484;-65
2021/08/22 06:24:41;;;;;;;17.92;11.38;;;25.30;54.50;;;;;;6109900;28;83439;-65
2021/08/22 06:27:41;;;;;;;20.40;11.40;;;25.30;54.50;;;;;;6111368;28;84522;-67
2021/08/22 06:30:42;;;;;;;19.77;10.70;;;25.40;54.50;;;;;;6109167;28;83343;-66
2021/08/22 06:33:42;;;;;;;17.15;11.43;;;25.40;54.70;;;;;;6107164;28;82862;-67
2021/08/22 06:36:43;;;;;;;20.73;11.52;;;25.40;54.40;;;;;;6105947;28;83457;-66
2021/08/22 06:39:47;;;;;;;19.27;11.73;;;25.40;54.40;;;;;;6110709;28;83965;-66
2021/08/22 06:42:48;;;;;;;20.30;11.73;;;25.40;54.40;;;;;;6091463;28;86410;-65
2021/08/22 06:45:48;;;;;;;18.27;11.00;;;25.40;54.40;;;;;;6119424;28;83339;-68
2021/08/22 06:48:49;;;;;;;20.55;11.75;;;25.40;54.40;;;;;;6109085;28;83378;-66
2021/08/22 06:51:49;;;;;;;17.15;11.27;;;25.40;54.40;;;;;;6108649;28;84173;-64
2021/08/22 06:54:50;;;;;;;19.25;10.68;;;25.40;54.20;;;;;;6110296;28;83220;-65
2021/08/22 06:57:50;;;;;;;22.65;11.90;;;25.40;54.80;;;;;;6108661;28;85511;-65
2021/08/22 07:00:53;;;;;;;21.95;11.20;;;25.40;54.60;;;;;;6109336;28;83121;-65
2021/08/22 07:03:54;;;;;;;15.73;10.25;;;25.40;54.90;;;;;;6107825;28;85018;-66
2021/08/22 07:06:55;;;;;;;20.13;11.65;;;25.40;55.30;;;;;;6115844;28;84350;-67
2021/08/22 07:09:55;;;;;;;21.45;10.48;;;25.40;55.10;;;;;;6107649;28;82980;-64
2021/08/22 07:12:55;;;;;;;30.30;10.52;;;25.40;55.50;;;;;;6109055;28;83415;-63
2021/08/22 07:15:56;;;;;;;27.85;12.05;;;25.50;55.50;;;;;;6110805;28;84227;-62
2021/08/22 07:18:56;;;;;;;21.48;11.77;;;25.50;55.60;;;;;;6109175;28;83803;-62
2021/08/22 07:21:57;;;;;;;18.27;11.43;;;25.40;56.20;;;;;;6105736;28;83970;-70
2021/08/22 07:24:59;;;;;;;16.50;11.13;;;25.40;56.20;;;;;;6106065;28;84374;-65
2021/08/22 07:27:59;;;;;;;17.15;10.57;;;25.50;56.20;;;;;;6108680;28;83470;-64
2021/08/22 07:31:04;;;;;;;22.77;11.55;;;25.40;56.90;;;;;;6112085;28;83373;-63
2021/08/22 07:34:05;;;;;;;18.03;11.17;;;25.40;57.00;;;;;;6090780;28;84222;-63
2021/08/22 07:37:05;;;;;;;21.13;11.55;;;25.50;57.50;;;;;;6102348;28;84119;-63
2021/08/22 07:40:06;;;;;;;21.90;11.00;;;25.50;57.00;;;;;;6107972;28;83301;-63
2021/08/22 07:43:06;;;;;;;15.05;10.80;;;25.50;57.00;;;;;;6109689;28;84057;-63
2021/08/22 07:46:07;;;;;;;22.50;11.10;;;25.50;57.00;;;;;;6107569;28;83551;-63
2021/08/22 07:49:07;;;;;;;17.45;10.63;;;25.50;56.70;;;;;;6107109;28;84173;-63
2021/08/22 07:52:08;;;;;;;17.83;10.32;;;25.50;56.60;;;;;;6106315;28;84256;-62
2021/08/22 07:55:11;;;;;;;16.88;11.00;;;25.50;56.50;;;;;;6109288;28;83588;-61
2021/08/22 07:58:11;;;;;;;19.05;11.60;;;25.50;56.30;;;;;;6109092;28;83454;-61
2021/08/22 08:01:12;;;;;;;15.40;11.43;;;25.50;55.90;;;;;;6109182;28;83191;-62
2021/08/22 08:04:13;;;;;;;17.45;11.30;;;25.50;55.90;;;;;;6112212;28;83952;-61
2021/08/22 08:07:13;;;;;;;16.70;11.15;;;25.50;56.00;;;;;;6107101;28;84069;-60
2021/08/22 08:10:14;;;;;;;14.57;10.63;;;25.50;56.60;;;;;;6109946;28;84011;-61
2021/08/22 08:13:14;;;;;;;14.82;10.38;;;25.50;56.80;;;;;;6108162;28;84335;-63
2021/08/22 08:16:15;;;;;;;17.42;11.10;;;25.50;57.40;;;;;;6106980;28;83479;-61
2021/08/22 08:19:15;;;;;;;13.35;10.88;;;25.50;57.50;;;;;;6103347;28;83229;-62
2021/08/22 08:22:15;;;;;;;13.82;10.20;;;25.50;57.60;;;;;;6103424;28;83552;-62
2021/08/22 08:25:16;;;;;;;16.02;11.10;;;25.50;57.80;;;;;;6104298;28;84200;-61
2021/08/22 08:28:16;;;;;;;13.35;10.07;;;25.50;58.40;;;;;;6101222;28;83461;-62
2021/08/22 08:31:17;;;;;;;13.25;9.63;;;25.50;57.80;;;;;;6091381;28;83351;-62
2021/08/22 08:34:17;;;;;;;14.25;9.40;;;25.50;58.30;;;;;;6106886;28;82901;-63
2021/08/22 08:37:19;;;;;;;13.93;10.13;;;25.60;58.50;;;;;;6109735;28;80586;-62
2021/08/22 08:40:20;;;;;;;14.57;10.02;;;25.60;58.10;;;;;;6103605;28;83503;-61
2021/08/22 08:43:20;;;;;;;14.98;9.80;;;25.60;57.80;;;;;;6106631;28;84118;-63
2021/08/22 08:46:21;;;;;;;12.15;8.55;;;25.70;57.50;;;;;;6113135;28;83857;-62
2021/08/22 08:49:24;;;;;;;15.40;9.60;;;25.70;57.50;;;;;;6109062;28;81515;-63
2021/08/22 08:52:25;;;;;;;15.10;10.30;;;25.70;57.70;;;;;;6110090;28;81490;-64
2021/08/22 08:55:25;;;;;;;18.65;10.40;;;25.70;57.70;;;;;;6101192;28;82845;-64
2021/08/22 08:58:26;;;;;;;20.48;9.63;;;25.70;57.50;;;;;;6097280;28;84975;-62
2021/08/22 09:01:26;;;;;;;15.55;9.68;;;25.70;57.60;;;;;;6102247;28;81678;-63
2021/08/22 09:04:27;;;;;;;11.45;9.35;;;25.70;57.30;;;;;;6108828;28;80655;-64
2021/08/22 09:07:27;;;;;;;14.23;9.55;;;25.70;57.10;;;;;;6103048;28;82697;-63
2021/08/22 09:10:28;;;;;;;12.80;9.20;;;25.70;57.20;;;;;;6099376;28;80979;-64
2021/08/22 09:13:28;;;;;;;14.30;8.75;;;25.70;56.70;;;;;;6109025;28;82621;-63
2021/08/22 09:16:29;;;;;;;11.52;8.80;;;25.70;56.60;;;;;;6107208;28;80982;-62
2021/08/22 09:19:29;;;;;;;16.48;8.93;;;25.80;56.70;;;;;;6110064;28;81326;-62
2021/08/22 09:22:30;;;;;;;13.07;8.25;;;25.70;57.20;;;;;;6111382;28;80716;-63
2021/08/22 09:25:30;;;;;;;12.85;9.13;;;25.80;56.90;;;;;;6105182;28;81723;-63
2021/08/22 09:28:31;;;;;;;14.80;9.40;;;25.80;56.70;;;;;;6108616;28;81209;-64
2021/08/22 09:31:31;;;;;;;12.95;9.07;;;25.80;56.80;;;;;;6105381;28;80709;-65
2021/08/22 09:34:32;;;;;;;13.25;9.00;;;25.80;56.50;;;;;;6089854;28;81472;-63
2021/08/22 09:37:33;;;;;;;11.50;8.55;;;25.90;56.50;;;;;;6108526;28;80533;-63
2021/08/22 09:40:34;;;;;;;16.08;8.48;;;25.90;56.80;;;;;;6118516;28;81305;-63
2021/08/22 09:43:35;;;;;;;15.15;8.10;;;25.80;56.60;;;;;;6108047;28;82386;-63
2021/08/22 09:46:36;;;;;;;12.45;7.68;;;25.80;57.00;;;;;;6113251;28;82300;-63
2021/08/22 09:49:36;;;;;;;10.73;8.07;;;25.80;56.50;;;;;;6113926;28;81539;-64
2021/08/22 09:52:37;;;;;;;11.25;8.68;;;25.80;56.80;;;;;;6112067;28;80835;-64
2021/08/22 09:55:38;;;;;;;11.90;8.50;;;25.90;56.50;;;;;;6109787;28;81785;-64
2021/08/22 09:58:39;;;;;;;12.77;8.18;;;25.80;56.50;;;;;;6098309;28;81958;-63
2021/08/22 10:01:39;;;;;;;11.30;7.55;;;25.80;56.90;;;;;;6113526;28;81617;-63
2021/08/22 10:04:40;;;;;;;10.07;8.35;;;25.80;56.80;;;;;;6112681;28;80548;-64
2021/08/22 10:07:40;;;;;;;10.32;7.90;;;25.80;56.50;;;;;;6113407;28;80381;-63
2021/08/22 10:10:41;;;;;;;10.05;7.78;;;25.80;57.10;;;;;;6120135;28;81612;-63
2021/08/22 10:13:41;;;;;;;10.15;7.97;;;25.90;56.90;;;;;;6093213;28;80633;-62
2021/08/22 10:16:41;;;;;;;14.32;7.07;;;25.80;57.30;;;;;;6087668;28;80372;-63
2021/08/22 10:19:42;;;;;;;9.77;7.05;;;25.90;56.50;;;;;;6072612;28;82592;-68
2021/08/22 10:22:43;;;;;;;8.55;7.18;;;25.90;56.40;;;;;;6091299;28;81972;-64
2021/08/22 10:25:43;;;;;;;8.63;7.13;;;25.90;56.70;;;;;;6087377;28;82172;-63
2021/08/22 10:28:43;;;;;;;10.20;7.40;;;25.90;56.50;;;;;;6089563;28;81367;-64
2021/08/22 10:31:44;;;;;;;10.25;7.78;;;26.00;56.50;;;;;;6088137;28;80668;-64
2021/08/22 10:34:45;;;;;;;13.45;7.55;;;25.90;56.20;;;;;;6088687;28;80734;-65
2021/08/22 10:37:45;;;;;;;11.25;7.10;;;25.90;56.00;;;;;;6085512;28;80729;-64
2021/08/22 10:40:46;;;;;;;11.60;6.80;;;25.90;56.20;;;;;;6087994;28;81635;-64
2021/08/22 10:43:46;;;;;;;13.10;7.28;;;25.90;55.90;;;;;;6089677;28;80518;-64
2021/08/22 10:46:47;;;;;;;9.25;7.15;;;25.90;55.90;;;;;;6093734;28;81317;-63
2021/08/22 10:49:47;;;;;;;9.75;7.00;;;26.00;56.20;;;;;;6090638;28;80343;-65
2021/08/22 10:52:48;;;;;;;12.00;7.15;;;25.90;56.00;;;;;;6087255;28;80926;-63
2021/08/22 10:55:48;;;;;;;13.00;6.32;;;25.90;55.80;;;;;;6084591;28;81842;-65
2021/08/22 10:58:49;;;;;;;7.32;6.20;;;26.00;55.50;;;;;;6086162;28;80564;-65
2021/08/22 11:01:49;;;;;;;8.68;6.20;;;26.00;54.90;;;;;;6086979;28;83252;-64
2021/08/22 11:04:53;;;;;;;12.57;6.40;;;26.10;54.50;;;;;;6089179;28;81867;-64
2021/08/22 11:07:54;;;;;;;10.90;6.65;;;26.20;53.50;;;;;;6089202;28;81597;-65
2021/08/22 11:10:55;;;;;;;8.35;5.57;;;26.30;53.50;;;;;;6096534;28;81599;-65
2021/08/22 11:13:56;;;;;;;10.35;5.43;;;26.40;50.60;;;;;;6082762;28;80449;-64
2021/08/22 11:16:56;;;;;;;6.35;4.53;;;26.40;49.50;;;;;;6088403;28;82063;-64
2021/08/22 11:19:57;;;;;;;5.93;4.05;;;26.50;47.30;;;;;;6088233;28;80389;-64
2021/08/22 11:22:57;;;;;;;5.90;4.63;;;26.50;46.10;;;;;;6087754;28;81565;-66
2021/08/22 11:25:58;;;;;;;5.88;4.05;;;26.40;47.80;;;;;;6085636;28;81119;-66
2021/08/22 11:28:58;;;;;;;6.30;4.43;;;26.50;47.60;;;;;;6086373;28;80599;-65
2021/08/22 11:31:59;;;;;;;5.60;4.47;;;26.60;46.40;;;;;;6086366;28;80421;-66
2021/08/22 11:34:59;;;;;;;5.63;4.63;;;26.60;47.90;;;;;;6086675;28;81525;-64
2021/08/22 11:38:00;;;;;;;8.18;4.18;;;26.60;46.70;;;;;;6085092;28;82039;-66
2021/08/22 11:41:02;;;;;;;5.43;4.43;;;26.60;46.10;;;;;;6087105;28;80598;-66
2021/08/22 11:44:02;;;;;;;6.22;4.47;;;26.70;47.00;;;;;;6086683;28;80522;-66
2021/08/22 11:47:03;;;;;;;5.82;4.15;;;26.60;48.40;;;;;;6089044;28;81153;-65
2021/08/22 11:50:06;;;;;;;5.70;4.53;;;26.60;49.90;;;;;;6085166;28;80764;-65
2021/08/22 11:53:07;;;;;;;5.15;4.32;;;26.50;51.10;;;;;;6093328;28;82089;-64
2021/08/22 11:56:07;;;;;;;4.82;4.03;;;26.50;49.20;;;;;;6086184;28;80289;-64
2021/08/22 11:59:08;;;;;;;5.03;3.65;;;26.60;48.10;;;;;;6095112;28;81267;-63
2021/08/22 12:02:08;;;;;;;6.88;4.30;;;26.60;47.80;;;;;;6092328;28;81132;-63
2021/08/22 12:05:09;;;;;;;5.50;4.20;;;26.60;48.30;;;;;;6075179;28;81895;-67
2021/08/22 12:08:09;;;;;;;7.28;4.68;;;26.60;51.20;;;;;;6090383;28;80423;-63
2021/08/22 12:11:10;;;;;;;5.88;4.75;;;26.60;51.80;;;;;;6104372;28;80890;-65
2021/08/22 12:14:10;;;;;;;7.50;4.18;;;26.50;52.90;;;;;;6087399;28;82154;-64
2021/08/22 12:17:11;;;;;;;4.13;3.50;;;26.50;51.10;;;;;;6082205;28;80192;-66
2021/08/22 12:20:11;;;;;;;5.68;4.13;;;26.40;49.20;;;;;;6095789;28;80910;-66
2021/08/22 12:23:12;;;;;;;5.75;4.25;;;26.40;49.70;;;;;;6110674;28;81658;-65
2021/08/22 12:26:12;;;;;;;4.70;3.78;;;26.40;49.40;;;;;;6114010;28;81355;-66
2021/08/22 12:29:14;;;;;;;5.43;4.15;;;26.40;49.70;;;;;;6112452;28;80673;-65
2021/08/22 12:32:18;;;;;;;5.47;3.90;;;26.40;49.50;;;;;;6112001;28;81084;-65
2021/08/22 12:35:19;;;;;;;5.00;3.70;;;26.30;48.90;;;;;;6111162;28;80450;-66
2021/08/22 12:38:20;;;;;;;4.60;4.05;;;26.30;48.90;;;;;;6110576;28;80966;-66
2021/08/22 12:41:20;;;;;;;5.57;4.05;;;26.30;48.90;;;;;;6108966;28;80459;-64
2021/08/22 12:44:21;;;;;;;5.07;4.10;;;26.30;48.70;;;;;;6107265;28;80244;-64
2021/08/22 12:47:21;;;;;;;5.72;4.05;;;26.30;47.90;;;;;;6106928;28;82905;-64
2021/08/22 12:50:22;;;;;;;3.97;3.58;;;26.30;47.00;;;;;;6084750;28;81439;-65
2021/08/22 12:53:22;;;;;;;9.02;6.47;;;26.40;47.20;;;;;;6085888;28;80513;-64
2021/08/22 12:56:23;;;;;;;5.53;4.55;;;26.40;47.20;;;;;;6081816;28;80526;-66
2021/08/22 12:59:23;;;;;;;5.15;4.40;;;26.40;47.70;;;;;;6083973;28;80641;-63
2021/08/22 13:02:24;;;;;;;6.10;4.32;;;26.50;46.00;;;;;;6090579;28;83303;-63
2021/08/22 13:05:24;;;;;;;6.03;4.95;;;26.50;45.40;;;;;;6082010;28;81544;-64
2021/08/22 13:08:25;;;;;;;8.45;3.97;;;26.50;45.50;;;;;;6093662;28;80579;-63
2021/08/22 13:11:25;;;;;;;5.20;3.75;;;26.50;44.90;;;;;;6088152;28;80950;-64
2021/08/22 13:14:26;;;;;;;5.60;4.53;;;26.50;45.30;;;;;;6090874;28;81532;-64
2021/08/22 13:17:26;;;;;;;5.13;4.10;;;26.40;44.90;;;;;;6077371;28;80782;-64
2021/08/22 13:20:27;;;;;;;5.55;3.90;;;26.30;45.20;;;;;;6074333;28;80857;-65
2021/08/22 13:23:27;;;;;;;5.80;3.80;;;26.30;45.30;;;;;;6074720;28;80603;-66
2021/08/22 13:26:28;;;;;;;5.60;4.10;;;26.30;45.20;;;;;;6086502;28;81549;-66
2021/08/22 13:29:28;;;;;;;4.90;3.70;;;26.30;46.30;;;;;;6084665;28;81371;-64
2021/08/22 13:32:29;;;;;;;6.25;3.80;;;26.30;45.90;;;;;;6086279;28;80726;-68
2021/08/22 13:35:29;;;;;;;5.80;3.90;;;26.40;46.40;;;;;;6082747;28;82022;-65
2021/08/22 13:38:30;;;;;;;6.05;3.90;;;26.40;45.60;;;;;;6086599;28;80161;-65
2021/08/22 13:41:32;;;;;;;4.18;3.42;;;26.40;45.70;;;;;;6075443;28;80273;-65
2021/08/22 13:44:35;;;;;;;4.78;3.67;;;26.40;44.60;;;;;;6081058;28;80516;-64
2021/08/22 13:47:36;;;;;;;3.95;3.28;;;26.40;44.80;;;;;;6086340;28;81040;-63
2021/08/22 13:50:36;;;;;;;5.60;4.03;;;26.40;45.90;;;;;;6088392;28;80814;-64
2021/08/22 13:53:37;;;;;;;4.88;3.55;;;26.40;45.70;;;;;;6086585;28;81299;-64
2021/08/22 13:56:37;;;;;;;5.40;3.75;;;26.40;45.50;;;;;;6073892;28;80522;-63
2021/08/22 13:59:38;;;;;;;6.70;3.63;;;26.40;45.00;;;;;;6086850;28;80491;-66
2021/08/22 14:02:38;;;;;;;4.95;3.78;;;26.40;45.20;;;;;;6085051;28;81229;-62
2021/08/22 14:05:39;;;;;;;4.18;3.78;;;26.40;45.80;;;;;;6082112;28;80904;-63
2021/08/22 14:08:39;;;;;;;5.50;3.92;;;26.40;46.10;;;;;;6083789;28;81456;-63
2021/08/22 14:11:40;;;;;;;4.90;3.88;;;26.40;46.60;;;;;;6080859;28;81964;-63
2021/08/22 14:14:41;;;;;;;9.10;3.53;;;26.40;47.10;;;;;;6083121;28;80617;-63
2021/08/22 14:17:42;;;;;;;5.07;3.70;;;26.40;46.70;;;;;;6089424;28;81440;-63
2021/08/22 14:20:42;;;;;;;6.85;3.60;;;26.50;45.90;;;;;;6087101;28;80271;-63
2021/08/22 14:23:43;;;;;;;7.20;4.18;;;26.50;45.70;;;;;;6086187;28;80728;-64
2021/08/22 14:26:43;;;;;;;4.97;3.63;;;26.50;45.00;;;;;;6087191;28;81118;-63
2021/08/22 14:29:44;;;;;;;4.90;3.85;;;26.50;44.60;;;;;;6086266;28;83524;-63
2021/08/22 14:32:44;;;;;;;6.13;3.67;;;26.50;45.20;;;;;;6083317;28;80590;-62
2021/08/22 14:35:45;;;;;;;4.28;3.60;;;26.40;45.70;;;;;;6084622;28;80739;-63
2021/08/22 14:38:45;;;;;;;6.90;4.18;;;26.40;46.40;;;;;;6087391;28;80564;-62
2021/08/22 14:41:46;;;;;;;4.25;3.42;;;26.40;46.60;;;;;;6082960;28;80385;-62
2021/08/22 14:44:46;;;;;;;4.28;3.35;;;26.40;46.00;;;;;;6080165;28;80709;-61
2021/08/22 14:47:53;;;;;;;3.75;3.35;;;26.40;46.50;;;;;;6085707;28;82114;-62
2021/08/22 14:50:53;;;;;;;6.40;3.35;;;26.40;46.70;;;;;;6113170;28;85544;-64
2021/08/22 14:53:54;;;;;;;3.88;3.47;;;26.40;46.90;;;;;;6112128;28;81297;-64
2021/08/22 14:56:54;;;;;;;5.07;3.90;;;26.40;47.30;;;;;;6114933;28;81030;-63
2021/08/22 14:59:55;;;;;;;4.95;3.95;;;26.40;47.80;;;;;;6113198;28;80502;-63
2021/08/22 15:02:55;;;;;;;6.63;3.35;;;26.40;46.90;;;;;;6109608;28;80555;-66
2021/08/22 15:05:56;;;;;;;6.07;3.90;;;26.40;48.00;;;;;;6097189;28;80263;-64
2021/08/22 15:08:56;;;;;;;7.60;4.18;;;26.40;48.30;;;;;;6068067;28;83372;-65
2021/08/22 15:11:57;;;;;;;6.07;4.15;;;26.40;48.80;;;;;;6087408;28;86634;-64
2021/08/22 15:14:57;;;;;;;7.20;4.22;;;26.40;48.70;;;;;;6109237;28;81831;-64
2021/08/22 15:17:58;;;;;;;4.30;3.30;;;26.30;48.50;;;;;;6112051;28;81716;-64
2021/08/22 15:20:59;;;;;;;4.50;4.03;;;26.30;48.40;;;;;;6099767;28;80797;-64
2021/08/22 15:23:59;;;;;;;4.60;3.47;;;26.40;48.30;;;;;;6109122;28;80764;-64
2021/08/22 15:27:01;;;;;;;5.97;3.90;;;26.40;47.90;;;;;;6084827;28;80678;-65